Time;durP1;ratioP1;P1;durP2;ratioP2;P2;SDS_P1;SDS_P2;PMS_P1;PMS_P2;Temp;Humidity;BMP_temperature;BMP_pressure;BME280_temperature;BME280_humidity;BME280_pressure;Samples;Min_cycle;Max_cycle;Signal;HPM_P1;HPM_P2
2022/07/01 00:01:25;;;;;;;18.75;14.85;;;;;;;;;;4995388;28;20229;-70
2022/07/01 00:03:50;;;;;;;18.33;15.63;;;;;;;;;;5010722;28;20674;-70
2022/07/01 00:06:16;;;;;;;20.40;16.20;;;;;;;;;;5011926;28;20590;-70
2022/07/01 00:08:41;;;;;;;20.27;16.67;;;;;;;;;;4994897;28;20217;-70
2022/07/01 00:11:06;;;;;;;23.55;17.90;;;;;;;;;;5008419;28;20179;-70
2022/07/01 00:13:32;;;;;;;22.30;18.77;;;;;;;;;;5011698;28;20650;-70
2022/07/01 00:15:57;;;;;;;23.58;20.23;;;;;;;;;;5013570;28;20183;-70
2022/07/01 00:18:23;;;;;;;23.15;19.65;;;;;;;;;;5009466;28;20558;-71
2022/07/01 00:20:50;;;;;;;24.20;18.17;;;;;;;;;;5012699;28;20200;-70
2022/07/01 00:23:16;;;;;;;26.13;20.73;;;;;;;;;;5007618;28;20290;-71
2022/07/01 00:25:41;;;;;;;23.88;20.67;;;;;;;;;;4996305;28;20168;-71
2022/07/01 00:28:07;;;;;;;26.15;20.98;;;;;;;;;;4991512;28;20176;-70
2022/07/01 00:30:32;;;;;;;27.63;21.13;;;;;;;;;;5018011;28;20656;-70
2022/07/01 00:32:57;;;;;;;27.35;22.85;;;;;;;;;;5011232;28;20210;-70
2022/07/01 00:35:22;;;;;;;31.85;25.17;;;;;;;;;;5013296;28;20250;-70
2022/07/01 00:37:47;;;;;;;28.15;23.67;;;;;;;;;;5008268;28;20185;-70
2022/07/01 00:40:13;;;;;;;30.13;24.73;;;;;;;;;;5015926;28;20179;-70
2022/07/01 00:42:38;;;;;;;29.30;23.70;;;;;;;;;;5013092;28;20728;-72
2022/07/01 00:45:05;;;;;;;30.35;26.02;;;;;;;;;;5011926;28;20209;-71
2022/07/01 00:47:31;;;;;;;31.15;25.83;;;;;;;;;;5012126;28;20680;-70
2022/07/01 00:49:56;;;;;;;34.03;24.52;;;;;;;;;;5014564;28;20234;-70
2022/07/01 00:52:21;;;;;;;32.22;25.88;;;;;;;;;;5012756;28;20207;-70
2022/07/01 00:54:46;;;;;;;30.40;24.85;;;;;;;;;;5011437;28;20257;-70
2022/07/01 00:57:11;;;;;;;30.70;24.63;;;;;;;;;;4995573;28;20167;-70
2022/07/01 00:59:38;;;;;;;29.77;24.85;;;;;;;;;;5012899;28;20187;-71
2022/07/01 01:02:04;;;;;;;29.13;23.80;;;;;;;;;;5014593;28;20214;-70
2022/07/01 01:04:29;;;;;;;31.73;25.25;;;;;;;;;;5009512;28;20221;-72
2022/07/01 01:06:55;;;;;;;26.60;22.55;;;;;;;;;;5008572;28;20190;-70
2022/07/01 01:09:20;;;;;;;29.38;23.20;;;;;;;;;;5011301;28;20264;-72
2022/07/01 01:11:45;;;;;;;32.45;23.35;;;;;;;;;;5004616;28;20639;-72
2022/07/01 01:14:10;;;;;;;28.90;23.23;;;;;;;;;;5011473;28;20329;-71
2022/07/01 01:16:37;;;;;;;28.27;22.02;;;;;;;;;;5015065;28;20181;-71
2022/07/01 01:19:05;;;;;;;32.35;24.83;;;;;;;;;;5005990;28;20180;-71
2022/07/01 01:21:31;;;;;;;29.63;24.00;;;;;;;;;;5001286;28;20215;-72
2022/07/01 01:23:57;;;;;;;29.88;23.98;;;;;;;;;;5009660;28;20237;-72
2022/07/01 01:26:24;;;;;;;30.23;24.20;;;;;;;;;;5008895;28;20178;-71
2022/07/01 01:28:49;;;;;;;28.77;22.48;;;;;;;;;;5008041;28;20314;-71
2022/07/01 01:31:15;;;;;;;30.20;24.25;;;;;;;;;;5005665;28;20281;-71
2022/07/01 01:33:41;;;;;;;30.98;24.35;;;;;;;;;;5008017;28;20191;-72
2022/07/01 01:36:09;;;;;;;29.60;22.67;;;;;;;;;;4998291;28;20176;-72
2022/07/01 01:38:35;;;;;;;30.98;24.05;;;;;;;;;;4979519;28;20770;-72
2022/07/01 01:41:00;;;;;;;26.88;22.40;;;;;;;;;;4995416;28;20184;-71
2022/07/01 01:43:25;;;;;;;30.73;23.15;;;;;;;;;;5001734;28;20195;-72
2022/07/01 01:45:51;;;;;;;30.77;23.70;;;;;;;;;;4993998;28;20182;-72
2022/07/01 01:48:16;;;;;;;31.10;22.90;;;;;;;;;;4996084;28;20187;-70
2022/07/01 01:50:41;;;;;;;30.33;24.15;;;;;;;;;;4991840;28;20172;-70
2022/07/01 01:53:06;;;;;;;33.25;22.95;;;;;;;;;;4991222;28;20297;-70
2022/07/01 01:55:32;;;;;;;31.30;24.27;;;;;;;;;;4995942;28;20180;-71
2022/07/01 01:57:57;;;;;;;34.92;24.30;;;;;;;;;;4995778;28;20209;-71
2022/07/01 02:00:22;;;;;;;31.00;23.30;;;;;;;;;;4994589;28;20656;-70
2022/07/01 02:02:47;;;;;;;34.17;23.63;;;;;;;;;;4977195;28;20589;-70
2022/07/01 02:05:13;;;;;;;33.78;23.10;;;;;;;;;;4990587;28;20704;-71
2022/07/01 02:07:38;;;;;;;30.15;24.75;;;;;;;;;;4999943;28;20593;-71
2022/07/01 02:10:04;;;;;;;31.23;23.83;;;;;;;;;;5006155;28;20206;-71
2022/07/01 02:12:29;;;;;;;33.25;24.17;;;;;;;;;;5005389;28;20281;-71
2022/07/01 02:14:54;;;;;;;34.22;25.48;;;;;;;;;;5010791;28;20175;-70
2022/07/01 02:17:19;;;;;;;32.35;23.98;;;;;;;;;;5013792;28;20186;-71
2022/07/01 02:19:45;;;;;;;32.03;23.17;;;;;;;;;;5002456;28;20264;-72
2022/07/01 02:22:10;;;;;;;32.42;23.50;;;;;;;;;;5006897;28;20186;-70
2022/07/01 02:24:35;;;;;;;31.08;22.83;;;;;;;;;;5002567;28;20239;-70
2022/07/01 02:27:00;;;;;;;31.63;23.27;;;;;;;;;;5010578;28;20175;-70
2022/07/01 02:29:25;;;;;;;33.90;24.25;;;;;;;;;;5008506;28;20215;-71
2022/07/01 02:31:51;;;;;;;33.75;22.60;;;;;;;;;;5010166;28;20183;-70
2022/07/01 02:34:16;;;;;;;36.13;24.58;;;;;;;;;;5011230;28;20206;-70
2022/07/01 02:36:41;;;;;;;35.20;24.17;;;;;;;;;;5011449;28;20676;-71
2022/07/01 02:39:06;;;;;;;33.17;23.38;;;;;;;;;;5009372;28;20570;-70
2022/07/01 02:42:22;;;;;;;37.72;23.52;;;;;;;;;;5010861;28;20213;-72
2022/07/01 02:44:17;;;;;;;37.97;24.23;;;;;;;;;;5007641;28;20214;-70
2022/07/01 02:46:42;;;;;;;37.30;24.95;;;;;;;;;;5010903;28;20175;-71
2022/07/01 02:49:07;;;;;;;37.05;25.67;;;;;;;;;;5009762;28;20289;-71
2022/07/01 02:51:32;;;;;;;38.00;24.25;;;;;;;;;;5009526;28;20214;-71
2022/07/01 02:53:57;;;;;;;38.95;24.85;;;;;;;;;;5012988;28;20215;-72
2022/07/01 02:56:22;;;;;;;35.25;25.20;;;;;;;;;;5010705;28;20660;-71
2022/07/01 02:58:48;;;;;;;36.00;24.40;;;;;;;;;;5009651;28;20186;-72
2022/07/01 03:01:13;;;;;;;34.55;23.52;;;;;;;;;;5009076;28;20254;-72
2022/07/01 03:03:38;;;;;;;34.47;25.10;;;;;;;;;;4990957;28;20829;-70
2022/07/01 03:06:03;;;;;;;35.55;23.77;;;;;;;;;;5009769;28;20174;-70
2022/07/01 03:08:28;;;;;;;37.92;23.70;;;;;;;;;;5007445;28;20726;-72
2022/07/01 03:10:54;;;;;;;34.20;23.77;;;;;;;;;;5005942;28;20171;-70
2022/07/01 03:13:19;;;;;;;36.78;23.67;;;;;;;;;;5009432;28;20196;-70
2022/07/01 03:15:44;;;;;;;37.00;25.52;;;;;;;;;;5009275;28;20190;-70
2022/07/01 03:18:09;;;;;;;36.00;23.98;;;;;;;;;;5008751;28;20183;-71
2022/07/01 03:20:34;;;;;;;36.38;24.48;;;;;;;;;;5005515;28;20183;-70
2022/07/01 03:23:00;;;;;;;38.33;23.63;;;;;;;;;;5005071;28;20609;-71
2022/07/01 03:25:26;;;;;;;41.70;25.25;;;;;;;;;;5009689;28;20222;-71
2022/07/01 03:27:51;;;;;;;36.22;24.77;;;;;;;;;;5008880;28;21427;-72
2022/07/01 03:30:17;;;;;;;40.08;25.25;;;;;;;;;;5009736;28;20269;-71
2022/07/01 03:32:43;;;;;;;38.85;26.25;;;;;;;;;;5009423;28;20198;-71
2022/07/01 03:37:52;;;;;;;42.35;24.85;;;;;;;;;;5008426;28;20197;-71
2022/07/01 03:40:17;;;;;;;39.40;26.20;;;;;;;;;;5007304;28;20188;-71
2022/07/01 03:42:43;;;;;;;38.58;25.63;;;;;;;;;;5008653;28;20203;-71
2022/07/01 03:45:08;;;;;;;38.30;25.80;;;;;;;;;;5012080;28;20182;-71
2022/07/01 03:47:34;;;;;;;44.67;28.85;;;;;;;;;;5011676;28;20183;-71
2022/07/01 03:49:59;;;;;;;41.83;27.08;;;;;;;;;;5015663;28;20699;-71
2022/07/01 03:52:24;;;;;;;44.28;29.15;;;;;;;;;;5006666;28;20336;-72
2022/07/01 03:54:49;;;;;;;42.65;27.83;;;;;;;;;;5002998;28;20194;-72
2022/07/01 03:57:14;;;;;;;46.57;28.07;;;;;;;;;;5005541;28;20237;-71
2022/07/01 03:59:40;;;;;;;42.60;26.97;;;;;;;;;;5006728;28;20558;-71
2022/07/01 04:02:05;;;;;;;42.78;28.83;;;;;;;;;;5004327;28;20187;-71
2022/07/01 04:04:31;;;;;;;35.60;26.73;;;;;;;;;;5005470;28;20682;-72
2022/07/01 04:07:00;;;;;;;45.83;29.63;;;;;;;;;;5009328;28;20193;-72
2022/07/01 04:09:26;;;;;;;59.55;29.40;;;;;;;;;;5008943;28;20281;-72
2022/07/01 04:11:51;;;;;;;47.05;28.45;;;;;;;;;;5006641;28;20693;-71
2022/07/01 04:14:16;;;;;;;41.83;29.95;;;;;;;;;;5009732;28;20326;-72
2022/07/01 04:16:43;;;;;;;42.58;28.08;;;;;;;;;;5008306;28;20265;-72
2022/07/01 04:19:09;;;;;;;41.67;27.13;;;;;;;;;;5008592;28;20179;-71
2022/07/01 04:24:19;;;;;;;46.80;27.42;;;;;;;;;;5006597;28;20245;-71
2022/07/01 04:26:44;;;;;;;40.20;27.73;;;;;;;;;;5008441;28;20656;-72
2022/07/01 04:29:10;;;;;;;43.63;27.30;;;;;;;;;;5009695;28;20202;-72
2022/07/01 04:31:35;;;;;;;38.17;27.08;;;;;;;;;;5012292;28;20637;-72
2022/07/01 04:34:00;;;;;;;37.05;26.38;;;;;;;;;;5013461;28;20206;-71
2022/07/01 04:36:26;;;;;;;39.72;25.75;;;;;;;;;;5014696;28;20175;-70
2022/07/01 04:38:51;;;;;;;38.45;26.02;;;;;;;;;;5014370;28;20619;-70
2022/07/01 04:44:00;;;;;;;32.42;24.92;;;;;;;;;;5013219;28;20205;-70
2022/07/01 04:46:26;;;;;;;34.05;22.92;;;;;;;;;;5015650;28;20187;-72
2022/07/01 04:48:51;;;;;;;30.35;22.10;;;;;;;;;;5011513;28;20198;-72
2022/07/01 04:51:16;;;;;;;26.73;22.00;;;;;;;;;;5012891;28;20171;-72
2022/07/01 04:53:41;;;;;;;27.60;21.40;;;;;;;;;;5012540;28;20218;-70
2022/07/01 04:56:06;;;;;;;36.05;23.77;;;;;;;;;;5013646;28;20544;-69
2022/07/01 04:58:31;;;;;;;25.42;19.00;;;;;;;;;;5012283;28;20179;-70
2022/07/01 05:00:57;;;;;;;25.48;19.20;;;;;;;;;;5013529;28;20185;-71
2022/07/01 05:03:22;;;;;;;22.15;18.30;;;;;;;;;;5011569;28;20246;-71
2022/07/01 05:05:47;;;;;;;23.35;18.52;;;;;;;;;;5010575;28;20183;-71
2022/07/01 05:08:12;;;;;;;21.65;15.38;;;;;;;;;;5011857;28;20171;-71
2022/07/01 05:10:37;;;;;;;22.30;15.13;;;;;;;;;;5009806;28;20214;-71
2022/07/01 05:13:02;;;;;;;19.67;14.20;;;;;;;;;;5010523;28;20585;-71
2022/07/01 05:15:28;;;;;;;20.70;12.85;;;;;;;;;;5007012;28;20267;-71
2022/07/01 05:23:21;;;;;;;12.70;10.55;;;;;;;;;;5013882;28;20209;-71
2022/07/01 05:25:47;;;;;;;13.93;10.55;;;;;;;;;;5004736;28;20644;-71
2022/07/01 05:28:12;;;;;;;12.55;10.50;;;;;;;;;;5013748;28;20202;-71
2022/07/01 05:30:38;;;;;;;13.95;10.73;;;;;;;;;;5009970;28;20716;-71
2022/07/01 05:33:03;;;;;;;13.48;9.45;;;;;;;;;;5001583;28;20676;-71
2022/07/01 05:35:28;;;;;;;13.43;9.30;;;;;;;;;;5011388;28;20181;-71
2022/07/01 05:37:53;;;;;;;17.63;9.60;;;;;;;;;;5010699;28;20270;-71
2022/07/01 05:40:19;;;;;;;12.25;10.23;;;;;;;;;;5010272;28;20601;-71
2022/07/01 05:42:44;;;;;;;12.00;10.32;;;;;;;;;;5009569;28;20242;-71
2022/07/01 05:45:09;;;;;;;11.85;9.45;;;;;;;;;;5014160;28;20242;-72
2022/07/01 05:47:34;;;;;;;15.13;9.48;;;;;;;;;;5007475;28;20456;-71
2022/07/01 05:50:00;;;;;;;13.40;9.82;;;;;;;;;;4992631;28;20235;-72
2022/07/01 05:52:25;;;;;;;11.70;8.77;;;;;;;;;;4997532;28;20282;-71
2022/07/01 05:54:50;;;;;;;12.77;8.90;;;;;;;;;;5000044;28;20615;-72
2022/07/01 05:57:15;;;;;;;11.35;8.38;;;;;;;;;;4997167;28;20175;-71
2022/07/01 05:59:40;;;;;;;14.45;8.75;;;;;;;;;;4994278;28;20172;-71
2022/07/01 06:02:06;;;;;;;13.55;8.00;;;;;;;;;;4996648;28;20187;-71
2022/07/01 06:04:31;;;;;;;13.93;7.18;;;;;;;;;;4977047;28;20303;-71
2022/07/01 06:06:56;;;;;;;13.38;8.02;;;;;;;;;;4995206;28;20217;-71
2022/07/01 06:09:21;;;;;;;12.27;7.72;;;;;;;;;;5008633;28;20195;-73
2022/07/01 06:11:47;;;;;;;13.82;7.20;;;;;;;;;;4996266;28;20244;-71
2022/07/01 06:14:12;;;;;;;9.95;7.40;;;;;;;;;;5004765;28;20202;-71
2022/07/01 06:16:37;;;;;;;12.35;8.15;;;;;;;;;;5005204;28;20673;-71
2022/07/01 06:19:04;;;;;;;9.05;7.50;;;;;;;;;;5002092;28;20190;-71
2022/07/01 06:21:29;;;;;;;13.07;7.70;;;;;;;;;;5001453;28;20233;-70
2022/07/01 06:23:54;;;;;;;9.63;7.13;;;;;;;;;;5010174;28;20199;-72
2022/07/01 06:26:19;;;;;;;10.80;6.75;;;;;;;;;;5007825;28;20245;-71
2022/07/01 06:28:45;;;;;;;11.95;7.88;;;;;;;;;;5004062;28;20354;-71
2022/07/01 06:31:10;;;;;;;10.65;7.13;;;;;;;;;;5012823;28;20175;-71
2022/07/01 06:33:35;;;;;;;14.02;7.82;;;;;;;;;;5011149;28;20191;-71
2022/07/01 06:36:00;;;;;;;12.77;7.47;;;;;;;;;;5011561;28;20175;-72
2022/07/01 06:38:25;;;;;;;14.13;7.93;;;;;;;;;;5013216;28;20186;-72
2022/07/01 06:43:35;;;;;;;15.60;7.55;;;;;;;;;;5008694;28;20202;-72
2022/07/01 06:46:01;;;;;;;10.05;6.70;;;;;;;;;;5010756;28;20202;-72
2022/07/01 06:48:26;;;;;;;9.60;6.28;;;;;;;;;;5011141;28;20206;-71
2022/07/01 06:50:51;;;;;;;13.55;6.60;;;;;;;;;;5011022;28;20827;-72
2022/07/01 06:53:16;;;;;;;11.48;6.60;;;;;;;;;;5011303;28;20216;-72
2022/07/01 06:55:41;;;;;;;10.30;7.07;;;;;;;;;;5011479;28;20237;-69
2022/07/01 06:58:07;;;;;;;8.52;6.47;;;;;;;;;;5006796;28;20207;-69
2022/07/01 07:00:32;;;;;;;9.40;6.32;;;;;;;;;;5009947;28;20175;-68
2022/07/01 07:02:57;;;;;;;12.30;5.93;;;;;;;;;;5011027;28;20202;-69
2022/07/01 07:05:22;;;;;;;7.95;4.85;;;;;;;;;;5010299;28;20187;-69
2022/07/01 07:07:48;;;;;;;7.97;5.40;;;;;;;;;;4991230;28;20183;-71
2022/07/01 07:10:13;;;;;;;9.43;5.38;;;;;;;;;;5010583;28;20198;-70
2022/07/01 07:12:38;;;;;;;7.22;5.45;;;;;;;;;;5010812;28;20187;-71
2022/07/01 07:15:04;;;;;;;13.95;6.45;;;;;;;;;;5007553;28;20643;-70
2022/07/01 07:17:29;;;;;;;6.30;5.00;;;;;;;;;;5011325;28;20171;-70
2022/07/01 07:19:55;;;;;;;8.85;5.38;;;;;;;;;;5009087;28;20174;-69
2022/07/01 07:22:20;;;;;;;9.45;4.68;;;;;;;;;;5010817;28;20313;-70
2022/07/01 07:24:45;;;;;;;11.02;5.20;;;;;;;;;;5011193;28;20201;-70
2022/07/01 07:27:10;;;;;;;13.20;5.22;;;;;;;;;;5011671;28;20209;-70
2022/07/01 07:29:36;;;;;;;9.15;4.57;;;;;;;;;;5017257;28;20206;-69
2022/07/01 07:32:01;;;;;;;6.75;4.97;;;;;;;;;;5007741;28;20171;-70
2022/07/01 07:34:26;;;;;;;6.82;4.20;;;;;;;;;;5011813;28;20186;-70
2022/07/01 07:36:51;;;;;;;13.30;4.53;;;;;;;;;;5009718;28;20190;-69
2022/07/01 07:39:16;;;;;;;8.30;4.53;;;;;;;;;;5014139;28;20448;-70
2022/07/01 07:41:41;;;;;;;10.68;4.10;;;;;;;;;;5010335;28;20254;-69
2022/07/01 07:44:07;;;;;;;8.23;4.00;;;;;;;;;;5010997;28;20702;-71
2022/07/01 07:46:32;;;;;;;7.20;3.60;;;;;;;;;;5008672;28;20431;-71
2022/07/01 07:48:57;;;;;;;6.90;2.80;;;;;;;;;;5002904;28;20514;-71
2022/07/01 07:51:22;;;;;;;9.85;3.42;;;;;;;;;;5009823;28;20179;-70
2022/07/01 07:53:48;;;;;;;8.98;3.58;;;;;;;;;;5010803;28;20218;-72
2022/07/01 07:56:13;;;;;;;7.18;3.10;;;;;;;;;;5008352;28;20191;-71
2022/07/01 07:58:41;;;;;;;7.37;2.97;;;;;;;;;;5013782;28;20175;-71
2022/07/01 08:01:06;;;;;;;4.75;2.53;;;;;;;;;;5006875;28;20420;-71
2022/07/01 08:03:34;;;;;;;6.10;2.25;;;;;;;;;;4993173;28;20284;-69
2022/07/01 08:05:59;;;;;;;4.88;2.45;;;;;;;;;;5001865;28;20190;-69
2022/07/01 08:08:24;;;;;;;9.80;2.20;;;;;;;;;;5015702;28;20168;-71
2022/07/01 08:10:49;;;;;;;6.20;1.85;;;;;;;;;;5014185;28;20202;-71
2022/07/01 08:13:14;;;;;;;5.38;2.03;;;;;;;;;;5016233;28;20186;-71
2022/07/01 08:15:41;;;;;;;5.20;2.00;;;;;;;;;;5014405;28;20175;-70
2022/07/01 08:18:07;;;;;;;10.35;3.47;;;;;;;;;;5013391;28;20544;-71
2022/07/01 08:20:32;;;;;;;5.33;2.50;;;;;;;;;;5011278;28;20175;-72
2022/07/01 08:22:57;;;;;;;4.75;2.65;;;;;;;;;;5004941;28;20445;-71
2022/07/01 08:25:22;;;;;;;4.20;1.80;;;;;;;;;;4996332;28;20326;-71
2022/07/01 08:27:47;;;;;;;5.57;1.90;;;;;;;;;;4994440;28;20211;-72
2022/07/01 08:30:13;;;;;;;4.82;1.60;;;;;;;;;;5012041;28;20958;-72
2022/07/01 08:32:38;;;;;;;6.50;1.40;;;;;;;;;;5015220;28;20195;-71
2022/07/01 08:35:03;;;;;;;6.80;1.77;;;;;;;;;;5016466;28;20171;-70
2022/07/01 08:37:28;;;;;;;6.22;1.85;;;;;;;;;;5013534;28;20439;-71
2022/07/01 08:39:54;;;;;;;5.95;1.83;;;;;;;;;;5013669;28;20175;-71
2022/07/01 08:42:19;;;;;;;5.65;1.40;;;;;;;;;;5011972;28;20182;-72
2022/07/01 08:44:44;;;;;;;7.55;1.30;;;;;;;;;;5012700;28;20186;-71
2022/07/01 08:47:13;;;;;;;7.43;1.45;;;;;;;;;;5012376;28;20588;-71
2022/07/01 08:49:38;;;;;;;6.93;1.30;;;;;;;;;;4994681;28;20209;-72
2022/07/01 08:52:03;;;;;;;5.55;1.55;;;;;;;;;;5016286;28;20250;-71
2022/07/01 08:54:28;;;;;;;4.63;1.47;;;;;;;;;;5012715;28;20250;-71
2022/07/01 08:56:53;;;;;;;7.45;2.05;;;;;;;;;;5013529;28;20409;-71
2022/07/01 08:59:23;;;;;;;3.83;2.33;;;;;;;;;;5007174;28;20708;-70
2022/07/01 09:01:54;;;;;;;4.45;1.25;;;;;;;;;;4996078;28;20481;-71
2022/07/01 09:04:20;;;;;;;4.35;1.20;;;;;;;;;;4977476;28;20200;-70
2022/07/01 09:06:46;;;;;;;1.85;0.93;;;;;;;;;;4977853;28;20213;-72
2022/07/01 09:09:12;;;;;;;4.00;0.82;;;;;;;;;;4992606;28;20199;-72
2022/07/01 09:11:43;;;;;;;4.53;1.67;;;;;;;;;;4993973;28;20199;-72
2022/07/01 09:14:09;;;;;;;4.88;1.20;;;;;;;;;;5004634;28;20203;-71
2022/07/01 09:16:44;;;;;;;5.05;1.80;;;;;;;;;;5004115;28;20190;-71
2022/07/01 09:19:10;;;;;;;2.45;0.98;;;;;;;;;;4986923;28;20178;-71
2022/07/01 09:21:36;;;;;;;5.03;1.70;;;;;;;;;;4993472;28;20183;-72
2022/07/01 09:24:05;;;;;;;3.58;1.13;;;;;;;;;;5012190;28;20205;-71
2022/07/01 09:26:31;;;;;;;4.03;0.80;;;;;;;;;;4994837;28;20490;-72
2022/07/01 09:28:57;;;;;;;2.70;0.70;;;;;;;;;;5013454;28;20199;-71
2022/07/01 09:31:29;;;;;;;7.63;1.45;;;;;;;;;;5014201;28;20191;-71
2022/07/01 09:34:05;;;;;;;1.70;0.65;;;;;;;;;;5006840;28;20257;-72
2022/07/01 09:36:30;;;;;;;4.05;1.05;;;;;;;;;;5000566;28;20670;-72
2022/07/01 09:38:55;;;;;;;4.70;0.80;;;;;;;;;;5004673;28;20179;-72
2022/07/01 09:41:23;;;;;;;3.30;1.08;;;;;;;;;;5008926;28;20175;-71
2022/07/01 09:43:48;;;;;;;5.50;0.95;;;;;;;;;;5012732;28;20203;-71
2022/07/01 09:46:13;;;;;;;2.47;0.90;;;;;;;;;;5008273;28;20206;-69
2022/07/01 09:48:38;;;;;;;2.75;0.60;;;;;;;;;;5013041;28;20434;-69
2022/07/01 09:51:08;;;;;;;3.95;0.80;;;;;;;;;;5018451;28;20195;-70
2022/07/01 09:53:34;;;;;;;3.80;1.00;;;;;;;;;;5008639;28;20211;-70
2022/07/01 09:55:59;;;;;;;4.03;0.50;;;;;;;;;;4996978;28;20271;-71
2022/07/01 09:58:25;;;;;;;5.32;0.90;;;;;;;;;;5010836;28;20183;-71
2022/07/01 10:00:51;;;;;;;4.55;0.80;;;;;;;;;;5007242;28;20191;-71
2022/07/01 10:03:17;;;;;;;3.20;0.82;;;;;;;;;;5010275;28;20198;-72
2022/07/01 10:05:47;;;;;;;3.05;0.85;;;;;;;;;;5011071;28;20201;-71
2022/07/01 10:08:28;;;;;;;2.30;1.23;;;;;;;;;;5011735;28;20726;-71
2022/07/01 10:11:13;;;;;;;4.03;0.82;;;;;;;;;;5011887;28;20758;-72
2022/07/01 10:13:41;;;;;;;1.88;0.45;;;;;;;;;;5007665;28;20199;-71
2022/07/01 10:16:07;;;;;;;2.50;0.63;;;;;;;;;;5014460;28;20183;-70
2022/07/01 10:18:33;;;;;;;2.10;0.75;;;;;;;;;;5009488;28;20280;-71
2022/07/01 10:20:58;;;;;;;2.60;0.80;;;;;;;;;;5014539;28;20661;-72
2022/07/01 10:23:24;;;;;;;4.60;0.70;;;;;;;;;;5011611;28;20523;-70
2022/07/01 10:25:51;;;;;;;4.50;1.20;;;;;;;;;;5003748;28;20180;-71
2022/07/01 10:28:22;;;;;;;2.55;0.93;;;;;;;;;;5011031;28;20182;-72
2022/07/01 10:30:51;;;;;;;2.75;0.60;;;;;;;;;;5015459;28;20974;-71
2022/07/01 10:33:26;;;;;;;3.40;0.82;;;;;;;;;;5003734;28;20700;-72
2022/07/01 10:35:51;;;;;;;2.85;0.52;;;;;;;;;;5010561;28;20641;-72
2022/07/01 10:38:17;;;;;;;1.77;0.70;;;;;;;;;;5011390;28;20186;-70
2022/07/01 10:40:48;;;;;;;3.75;1.13;;;;;;;;;;5012080;28;20171;-71
2022/07/01 10:43:30;;;;;;;4.85;0.63;;;;;;;;;;5011899;28;20191;-72
2022/07/01 10:45:56;;;;;;;6.18;1.20;;;;;;;;;;5011532;28;20270;-71
2022/07/01 10:48:22;;;;;;;3.70;0.60;;;;;;;;;;5008441;28;20257;-71
2022/07/01 10:50:47;;;;;;;3.30;0.93;;;;;;;;;;5011173;28;20479;-71
2022/07/01 10:53:13;;;;;;;2.40;0.60;;;;;;;;;;5011747;28;20692;-71
2022/07/01 10:55:39;;;;;;;3.40;0.60;;;;;;;;;;5009986;28;20181;-71
2022/07/01 10:58:05;;;;;;;1.30;0.47;;;;;;;;;;5010988;28;20250;-71
2022/07/01 11:00:34;;;;;;;2.80;0.70;;;;;;;;;;5011288;28;20258;-71
2022/07/01 11:03:10;;;;;;;3.97;0.80;;;;;;;;;;5003556;28;20226;-71
2022/07/01 11:05:36;;;;;;;1.75;0.82;;;;;;;;;;5010474;28;20317;-71
2022/07/01 11:08:02;;;;;;;3.30;0.85;;;;;;;;;;5009843;28;20463;-72
2022/07/01 11:10:27;;;;;;;1.63;0.50;;;;;;;;;;5001479;28;20293;-71
2022/07/01 11:12:52;;;;;;;1.88;0.50;;;;;;;;;;5011078;28;20198;-71
2022/07/01 11:15:17;;;;;;;3.47;0.80;;;;;;;;;;4992713;28;20198;-71
2022/07/01 11:17:44;;;;;;;3.33;0.95;;;;;;;;;;5005745;28;20399;-72
2022/07/01 11:20:10;;;;;;;1.70;0.60;;;;;;;;;;5011123;28;20536;-71
2022/07/01 11:22:35;;;;;;;4.38;0.80;;;;;;;;;;5011158;28;20764;-71
2022/07/01 11:25:02;;;;;;;2.97;0.70;;;;;;;;;;5010281;28;20309;-71
2022/07/01 11:27:28;;;;;;;2.53;0.80;;;;;;;;;;5011131;28;20171;-70
2022/07/01 11:29:57;;;;;;;1.95;0.60;;;;;;;;;;5015535;28;20214;-71
2022/07/01 11:32:26;;;;;;;1.38;0.50;;;;;;;;;;5015258;28;20244;-71
2022/07/01 11:34:52;;;;;;;2.10;0.70;;;;;;;;;;5011419;28;20662;-71
2022/07/01 11:40:08;;;;;;;3.13;0.68;;;;;;;;;;5014718;28;20190;-70
2022/07/01 11:42:34;;;;;;;2.50;0.60;;;;;;;;;;5012237;28;20203;-71
2022/07/01 11:44:59;;;;;;;3.85;0.70;;;;;;;;;;5016987;28;20201;-71
2022/07/01 11:47:25;;;;;;;0.70;0.40;;;;;;;;;;5016351;28;20171;-70
2022/07/01 11:49:50;;;;;;;1.25;0.50;;;;;;;;;;5013253;28;20463;-71
2022/07/01 11:52:16;;;;;;;3.83;0.93;;;;;;;;;;5014261;28;20230;-71
2022/07/01 11:54:44;;;;;;;5.82;1.50;;;;;;;;;;5009970;28;21170;-70
2022/07/01 11:57:13;;;;;;;3.20;0.88;;;;;;;;;;5012791;28;20195;-70
2022/07/01 11:59:39;;;;;;;2.85;0.52;;;;;;;;;;5008544;28;20275;-70
2022/07/01 12:02:05;;;;;;;1.35;0.50;;;;;;;;;;5015094;28;20229;-71
2022/07/01 12:04:30;;;;;;;4.57;1.00;;;;;;;;;;5014281;28;20195;-70
2022/07/01 12:06:56;;;;;;;5.03;0.90;;;;;;;;;;5007755;28;20214;-71
2022/07/01 12:09:23;;;;;;;3.90;0.90;;;;;;;;;;5001943;28;20264;-71
2022/07/01 12:11:49;;;;;;;3.47;0.77;;;;;;;;;;5013649;28;20723;-71
2022/07/01 12:14:25;;;;;;;3.53;0.95;;;;;;;;;;5014490;28;20199;-71
2022/07/01 12:16:54;;;;;;;2.45;0.52;;;;;;;;;;5017772;28;20170;-72
2022/07/01 12:19:20;;;;;;;4.47;0.88;;;;;;;;;;5014419;28;20171;-70
2022/07/01 12:21:48;;;;;;;1.13;0.50;;;;;;;;;;5016004;28;20571;-70
2022/07/01 12:24:14;;;;;;;2.67;0.63;;;;;;;;;;4995620;28;20202;-71
2022/07/01 12:26:47;;;;;;;4.38;0.90;;;;;;;;;;5003297;28;20194;-70
2022/07/01 12:29:13;;;;;;;4.72;1.15;;;;;;;;;;5015553;28;20285;-70
2022/07/01 12:31:40;;;;;;;4.10;0.88;;;;;;;;;;5016853;28;20266;-69
2022/07/01 12:34:05;;;;;;;2.60;0.73;;;;;;;;;;5012523;28;20187;-71
2022/07/01 12:36:30;;;;;;;4.50;0.93;;;;;;;;;;5014215;28;20225;-70
2022/07/01 12:39:08;;;;;;;3.50;1.00;;;;;;;;;;5013729;28;20232;-72
2022/07/01 12:41:34;;;;;;;2.80;0.95;;;;;;;;;;5013359;28;20930;-70
2022/07/01 12:44:01;;;;;;;2.47;1.08;;;;;;;;;;5006977;28;20206;-71
2022/07/01 12:46:29;;;;;;;3.97;0.70;;;;;;;;;;5012194;28;20183;-71
2022/07/01 12:48:55;;;;;;;4.60;0.80;;;;;;;;;;5013316;28;20178;-71
2022/07/01 12:51:20;;;;;;;4.20;0.82;;;;;;;;;;5013779;28;20167;-71
2022/07/01 12:53:45;;;;;;;4.73;0.90;;;;;;;;;;4996296;28;20776;-70
2022/07/01 12:56:21;;;;;;;4.87;0.97;;;;;;;;;;5013996;28;20413;-72
2022/07/01 12:58:46;;;;;;;2.45;0.90;;;;;;;;;;5012973;28;20461;-73
2022/07/01 13:01:12;;;;;;;3.13;1.00;;;;;;;;;;5010615;28;20175;-72
2022/07/01 13:03:37;;;;;;;2.90;1.17;;;;;;;;;;5004465;28;20474;-72
2022/07/01 13:06:02;;;;;;;3.72;1.50;;;;;;;;;;5008469;28;20179;-72
2022/07/01 13:08:27;;;;;;;3.53;1.10;;;;;;;;;;4995383;28;20190;-72
2022/07/01 13:10:52;;;;;;;2.17;0.80;;;;;;;;;;5011430;28;20213;-72
2022/07/01 13:13:18;;;;;;;3.17;1.20;;;;;;;;;;5011879;28;20203;-72
2022/07/01 13:15:44;;;;;;;2.90;1.15;;;;;;;;;;5008753;28;20188;-73
2022/07/01 13:18:09;;;;;;;4.38;1.17;;;;;;;;;;5006987;28;20326;-72
2022/07/01 13:20:35;;;;;;;2.15;0.90;;;;;;;;;;5015492;28;20224;-72
2022/07/01 13:23:00;;;;;;;1.80;0.90;;;;;;;;;;5004902;28;20211;-72
2022/07/01 13:25:25;;;;;;;1.60;0.75;;;;;;;;;;5012086;28;20182;-72
2022/07/01 13:27:51;;;;;;;1.30;0.77;;;;;;;;;;5012251;28;20175;-72
2022/07/01 13:30:16;;;;;;;3.78;0.98;;;;;;;;;;5012512;28;20206;-72
2022/07/01 13:32:42;;;;;;;4.10;0.73;;;;;;;;;;5007006;28;20573;-72
2022/07/01 13:35:08;;;;;;;3.40;0.90;;;;;;;;;;5007319;28;20183;-72
2022/07/01 13:37:33;;;;;;;4.22;1.10;;;;;;;;;;4989315;28;21370;-72
2022/07/01 13:39:58;;;;;;;3.45;0.90;;;;;;;;;;5000948;28;20190;-73
2022/07/01 13:42:23;;;;;;;2.77;1.00;;;;;;;;;;5012293;28;20179;-72
2022/07/01 13:44:50;;;;;;;4.87;1.30;;;;;;;;;;5013026;28;20884;-72
2022/07/01 13:47:15;;;;;;;3.50;1.00;;;;;;;;;;5012205;28;20432;-72
2022/07/01 13:49:44;;;;;;;3.08;1.05;;;;;;;;;;5011273;28;20210;-72
2022/07/01 13:52:09;;;;;;;2.67;0.93;;;;;;;;;;4993085;28;20465;-72
2022/07/01 13:54:34;;;;;;;2.90;1.25;;;;;;;;;;5007976;28;20191;-72
2022/07/01 13:57:00;;;;;;;3.60;1.57;;;;;;;;;;5005859;28;20186;-72
2022/07/01 13:59:25;;;;;;;3.55;0.88;;;;;;;;;;5010052;28;20748;-72
2022/07/01 14:01:50;;;;;;;2.25;1.10;;;;;;;;;;5011441;28;20195;-72
2022/07/01 14:04:16;;;;;;;10.23;1.17;;;;;;;;;;5012636;28;20254;-72
2022/07/01 14:06:41;;;;;;;2.85;1.10;;;;;;;;;;5004617;28;20206;-72
2022/07/01 14:09:07;;;;;;;3.33;0.80;;;;;;;;;;5007283;28;20271;-72
2022/07/01 14:11:32;;;;;;;3.63;0.70;;;;;;;;;;5011795;28;20941;-72
2022/07/01 14:14:04;;;;;;;5.32;1.17;;;;;;;;;;5059840;28;20573;-72
2022/07/01 14:16:29;;;;;;;4.05;1.15;;;;;;;;;;5050537;28;20190;-72
2022/07/01 14:18:54;;;;;;;2.83;1.00;;;;;;;;;;5063448;28;20219;-72
2022/07/01 14:21:20;;;;;;;2.90;1.00;;;;;;;;;;5062301;28;20277;-72
2022/07/01 14:23:45;;;;;;;2.47;0.90;;;;;;;;;;5059731;28;20594;-72
2022/07/01 14:26:11;;;;;;;3.60;1.40;;;;;;;;;;5065490;28;20223;-72
2022/07/01 14:28:36;;;;;;;4.37;0.83;;;;;;;;;;5060224;28;20410;-70
2022/07/01 14:31:01;;;;;;;1.20;0.57;;;;;;;;;;5063227;28;20501;-71
2022/07/01 14:33:26;;;;;;;1.20;0.60;;;;;;;;;;5057236;28;20462;-71
2022/07/01 14:35:52;;;;;;;2.20;0.40;;;;;;;;;;5057999;28;20572;-71
2022/07/01 14:38:17;;;;;;;3.55;0.80;;;;;;;;;;5059291;28;20454;-71
2022/07/01 14:40:42;;;;;;;3.35;0.95;;;;;;;;;;5058090;28;20166;-71
2022/07/01 14:43:07;;;;;;;2.55;0.95;;;;;;;;;;5062401;28;20579;-71